sensor_id;sensor_type;location;lat;lon;timestamp;P1;durP1;ratioP1;P2;durP2;ratioP2
10246;SDS011;5168;47.854;7.944;2023-09-30T00:02:21;10.13;;;4.77;;
10246;SDS011;5168;47.854;7.944;2023-09-30T00:04:47;8.13;;;4.60;;
10246;SDS011;5168;47.854;7.944;2023-09-30T00:07:13;7.47;;;4.30;;
10246;SDS011;5168;47.854;7.944;2023-09-30T00:09:39;6.53;;;3.87;;
10246;SDS011;5168;47.854;7.944;2023-09-30T00:12:05;9.60;;;4.80;;
10246;SDS011;5168;47.854;7.944;2023-09-30T00:14:31;10.33;;;4.37;;
10246;SDS011;5168;47.854;7.944;2023-09-30T00:16:57;9.57;;;4.40;;
10246;SDS011;5168;47.854;7.944;2023-09-30T00:19:23;8.43;;;4.00;;
10246;SDS011;5168;47.854;7.944;2023-09-30T00:21:48;10.13;;;4.27;;
10246;SDS011;5168;47.854;7.944;2023-09-30T00:24:14;6.87;;;3.73;;
10246;SDS011;5168;47.854;7.944;2023-09-30T00:26:40;8.17;;;4.10;;
10246;SDS011;5168;47.854;7.944;2023-09-30T00:29:06;9.77;;;4.43;;
10246;SDS011;5168;47.854;7.944;2023-09-30T00:31:32;8.50;;;3.87;;
10246;SDS011;5168;47.854;7.944;2023-09-30T00:33:58;9.37;;;4.37;;
10246;SDS011;5168;47.854;7.944;2023-09-30T00:36:24;9.73;;;4.00;;
10246;SDS011;5168;47.854;7.944;2023-09-30T00:38:50;11.00;;;4.23;;
10246;SDS011;5168;47.854;7.944;2023-09-30T00:41:17;10.00;;;4.13;;
10246;SDS011;5168;47.854;7.944;2023-09-30T00:43:45;8.80;;;4.40;;
10246;SDS011;5168;47.854;7.944;2023-09-30T00:46:18;9.20;;;4.57;;
10246;SDS011;5168;47.854;7.944;2023-09-30T00:48:54;9.30;;;4.80;;
10246;SDS011;5168;47.854;7.944;2023-09-30T00:51:22;8.07;;;4.00;;
10246;SDS011;5168;47.854;7.944;2023-09-30T00:53:48;9.33;;;4.13;;
10246;SDS011;5168;47.854;7.944;2023-09-30T00:56:15;7.53;;;4.33;;
10246;SDS011;5168;47.854;7.944;2023-09-30T00:58:41;10.13;;;3.97;;
10246;SDS011;5168;47.854;7.944;2023-09-30T01:01:07;7.03;;;4.03;;
10246;SDS011;5168;47.854;7.944;2023-09-30T01:03:34;7.43;;;4.17;;
10246;SDS011;5168;47.854;7.944;2023-09-30T01:06:00;6.60;;;3.80;;
10246;SDS011;5168;47.854;7.944;2023-09-30T01:08:26;6.47;;;3.87;;
10246;SDS011;5168;47.854;7.944;2023-09-30T01:10:52;8.40;;;3.87;;
10246;SDS011;5168;47.854;7.944;2023-09-30T01:13:19;5.73;;;3.70;;
10246;SDS011;5168;47.854;7.944;2023-09-30T01:15:44;7.93;;;3.97;;
10246;SDS011;5168;47.854;7.944;2023-09-30T01:18:12;8.07;;;4.03;;
10246;SDS011;5168;47.854;7.944;2023-09-30T01:20:37;11.30;;;3.97;;
10246;SDS011;5168;47.854;7.944;2023-09-30T01:23:03;8.43;;;3.93;;
10246;SDS011;5168;47.854;7.944;2023-09-30T01:25:29;13.50;;;4.43;;
10246;SDS011;5168;47.854;7.944;2023-09-30T01:27:55;10.30;;;4.73;;
10246;SDS011;5168;47.854;7.944;2023-09-30T01:30:21;9.67;;;4.40;;
10246;SDS011;5168;47.854;7.944;2023-09-30T01:32:48;8.10;;;4.33;;
10246;SDS011;5168;47.854;7.944;2023-09-30T01:35:14;9.20;;;4.20;;
10246;SDS011;5168;47.854;7.944;2023-09-30T01:37:39;9.43;;;4.20;;
10246;SDS011;5168;47.854;7.944;2023-09-30T01:40:05;7.67;;;3.97;;
10246;SDS011;5168;47.854;7.944;2023-09-30T01:42:33;8.83;;;4.33;;
10246;SDS011;5168;47.854;7.944;2023-09-30T01:44:58;7.87;;;4.10;;
10246;SDS011;5168;47.854;7.944;2023-09-30T01:47:24;8.30;;;3.93;;
10246;SDS011;5168;47.854;7.944;2023-09-30T01:49:50;6.53;;;3.73;;
10246;SDS011;5168;47.854;7.944;2023-09-30T01:52:15;10.67;;;4.53;;
10246;SDS011;5168;47.854;7.944;2023-09-30T01:54:41;10.97;;;4.47;;
10246;SDS011;5168;47.854;7.944;2023-09-30T01:57:06;7.80;;;4.30;;
10246;SDS011;5168;47.854;7.944;2023-09-30T01:59:32;11.10;;;5.20;;
10246;SDS011;5168;47.854;7.944;2023-09-30T02:01:58;9.13;;;4.50;;
10246;SDS011;5168;47.854;7.944;2023-09-30T02:04:24;8.17;;;4.60;;
10246;SDS011;5168;47.854;7.944;2023-09-30T02:06:49;9.53;;;4.37;;
10246;SDS011;5168;47.854;7.944;2023-09-30T02:09:15;8.77;;;4.70;;
10246;SDS011;5168;47.854;7.944;2023-09-30T02:11:41;10.57;;;4.80;;
10246;SDS011;5168;47.854;7.944;2023-09-30T02:14:06;7.83;;;4.10;;
10246;SDS011;5168;47.854;7.944;2023-09-30T02:16:32;6.57;;;4.07;;
10246;SDS011;5168;47.854;7.944;2023-09-30T02:18:58;7.87;;;4.00;;
10246;SDS011;5168;47.854;7.944;2023-09-30T02:21:24;7.97;;;3.73;;
10246;SDS011;5168;47.854;7.944;2023-09-30T02:23:49;7.47;;;3.90;;
10246;SDS011;5168;47.854;7.944;2023-09-30T02:26:20;8.87;;;4.57;;
10246;SDS011;5168;47.854;7.944;2023-09-30T02:28:46;7.43;;;4.10;;
10246;SDS011;5168;47.854;7.944;2023-09-30T02:31:12;8.67;;;4.57;;
10246;SDS011;5168;47.854;7.944;2023-09-30T02:33:38;11.40;;;4.83;;
10246;SDS011;5168;47.854;7.944;2023-09-30T02:36:07;9.23;;;4.30;;
10246;SDS011;5168;47.854;7.944;2023-09-30T02:38:33;9.07;;;4.30;;
10246;SDS011;5168;47.854;7.944;2023-09-30T02:41:01;5.87;;;3.87;;
10246;SDS011;5168;47.854;7.944;2023-09-30T02:43:27;9.20;;;4.60;;
10246;SDS011;5168;47.854;7.944;2023-09-30T02:45:53;10.47;;;5.07;;
10246;SDS011;5168;47.854;7.944;2023-09-30T02:48:18;10.90;;;4.87;;
10246;SDS011;5168;47.854;7.944;2023-09-30T02:50:44;9.67;;;4.77;;
10246;SDS011;5168;47.854;7.944;2023-09-30T02:53:10;9.97;;;4.33;;
10246;SDS011;5168;47.854;7.944;2023-09-30T02:55:38;9.93;;;5.07;;
10246;SDS011;5168;47.854;7.944;2023-09-30T02:58:04;7.70;;;4.10;;
10246;SDS011;5168;47.854;7.944;2023-09-30T03:00:29;9.20;;;4.20;;
10246;SDS011;5168;47.854;7.944;2023-09-30T03:02:59;7.27;;;4.27;;
10246;SDS011;5168;47.854;7.944;2023-09-30T03:05:26;7.93;;;4.20;;
10246;SDS011;5168;47.854;7.944;2023-09-30T03:07:53;9.17;;;4.40;;
10246;SDS011;5168;47.854;7.944;2023-09-30T03:10:20;10.50;;;4.23;;
10246;SDS011;5168;47.854;7.944;2023-09-30T03:12:49;11.90;;;5.40;;
10246;SDS011;5168;47.854;7.944;2023-09-30T03:15:15;9.83;;;5.00;;
10246;SDS011;5168;47.854;7.944;2023-09-30T03:17:41;10.53;;;4.60;;
10246;SDS011;5168;47.854;7.944;2023-09-30T03:20:07;7.03;;;4.10;;
10246;SDS011;5168;47.854;7.944;2023-09-30T03:22:39;10.13;;;4.30;;
10246;SDS011;5168;47.854;7.944;2023-09-30T03:25:06;10.53;;;4.83;;
10246;SDS011;5168;47.854;7.944;2023-09-30T03:27:33;8.90;;;4.80;;
10246;SDS011;5168;47.854;7.944;2023-09-30T03:29:59;7.93;;;4.27;;
10246;SDS011;5168;47.854;7.944;2023-09-30T03:32:26;11.40;;;4.73;;
10246;SDS011;5168;47.854;7.944;2023-09-30T03:34:52;11.43;;;4.87;;
10246;SDS011;5168;47.854;7.944;2023-09-30T03:37:17;9.40;;;5.00;;
10246;SDS011;5168;47.854;7.944;2023-09-30T03:39:43;10.57;;;5.43;;
10246;SDS011;5168;47.854;7.944;2023-09-30T03:42:09;9.53;;;4.77;;
10246;SDS011;5168;47.854;7.944;2023-09-30T03:44:36;9.90;;;4.60;;
10246;SDS011;5168;47.854;7.944;2023-09-30T03:47:03;9.33;;;4.50;;
10246;SDS011;5168;47.854;7.944;2023-09-30T03:49:29;8.57;;;4.40;;
10246;SDS011;5168;47.854;7.944;2023-09-30T03:51:55;10.03;;;4.90;;
10246;SDS011;5168;47.854;7.944;2023-09-30T03:54:22;12.53;;;5.03;;
10246;SDS011;5168;47.854;7.944;2023-09-30T03:56:48;10.00;;;4.97;;
10246;SDS011;5168;47.854;7.944;2023-09-30T03:59:14;11.37;;;5.77;;
10246;SDS011;5168;47.854;7.944;2023-09-30T04:01:41;17.03;;;8.70;;
10246;SDS011;5168;47.854;7.944;2023-09-30T04:04:07;12.73;;;6.90;;
10246;SDS011;5168;47.854;7.944;2023-09-30T04:06:37;10.70;;;5.37;;
10246;SDS011;5168;47.854;7.944;2023-09-30T04:09:06;10.03;;;4.77;;
10246;SDS011;5168;47.854;7.944;2023-09-30T04:11:37;6.53;;;4.10;;
10246;SDS011;5168;47.854;7.944;2023-09-30T04:14:05;7.90;;;4.60;;
10246;SDS011;5168;47.854;7.944;2023-09-30T04:16:31;8.83;;;5.20;;
10246;SDS011;5168;47.854;7.944;2023-09-30T04:18:57;11.23;;;4.83;;
10246;SDS011;5168;47.854;7.944;2023-09-30T04:21:23;8.60;;;4.13;;
10246;SDS011;5168;47.854;7.944;2023-09-30T04:23:49;7.87;;;4.13;;
10246;SDS011;5168;47.854;7.944;2023-09-30T04:26:14;10.73;;;4.63;;
10246;SDS011;5168;47.854;7.944;2023-09-30T04:28:40;9.77;;;4.30;;
10246;SDS011;5168;47.854;7.944;2023-09-30T04:31:06;10.70;;;4.93;;
10246;SDS011;5168;47.854;7.944;2023-09-30T04:33:33;11.70;;;5.03;;
10246;SDS011;5168;47.854;7.944;2023-09-30T04:36:00;9.73;;;4.90;;
10246;SDS011;5168;47.854;7.944;2023-09-30T04:38:26;9.87;;;4.60;;
10246;SDS011;5168;47.854;7.944;2023-09-30T04:40:52;14.23;;;5.83;;
10246;SDS011;5168;47.854;7.944;2023-09-30T04:43:19;10.80;;;4.93;;
10246;SDS011;5168;47.854;7.944;2023-09-30T04:45:46;10.97;;;4.00;;
10246;SDS011;5168;47.854;7.944;2023-09-30T04:48:12;9.93;;;5.07;;
10246;SDS011;5168;47.854;7.944;2023-09-30T04:50:39;7.40;;;4.37;;
10246;SDS011;5168;47.854;7.944;2023-09-30T04:53:05;9.00;;;4.63;;
10246;SDS011;5168;47.854;7.944;2023-09-30T04:55:31;10.20;;;5.20;;
10246;SDS011;5168;47.854;7.944;2023-09-30T04:57:57;13.13;;;5.53;;
10246;SDS011;5168;47.854;7.944;2023-09-30T05:00:22;12.70;;;5.90;;
10246;SDS011;5168;47.854;7.944;2023-09-30T05:02:50;9.63;;;4.80;;
10246;SDS011;5168;47.854;7.944;2023-09-30T05:05:17;10.63;;;5.33;;
10246;SDS011;5168;47.854;7.944;2023-09-30T05:07:43;9.67;;;4.73;;
10246;SDS011;5168;47.854;7.944;2023-09-30T05:10:11;10.70;;;5.17;;
10246;SDS011;5168;47.854;7.944;2023-09-30T05:12:40;8.97;;;4.97;;
10246;SDS011;5168;47.854;7.944;2023-09-30T05:15:12;9.87;;;5.03;;
10246;SDS011;5168;47.854;7.944;2023-09-30T05:17:40;8.93;;;4.90;;
10246;SDS011;5168;47.854;7.944;2023-09-30T05:20:09;8.70;;;4.50;;
10246;SDS011;5168;47.854;7.944;2023-09-30T05:22:37;8.20;;;4.83;;
10246;SDS011;5168;47.854;7.944;2023-09-30T05:25:04;7.90;;;4.30;;
10246;SDS011;5168;47.854;7.944;2023-09-30T05:27:29;8.73;;;4.17;;
10246;SDS011;5168;47.854;7.944;2023-09-30T05:29:55;9.37;;;4.57;;
10246;SDS011;5168;47.854;7.944;2023-09-30T05:32:21;9.97;;;4.83;;
10246;SDS011;5168;47.854;7.944;2023-09-30T05:34:47;9.03;;;4.40;;
10246;SDS011;5168;47.854;7.944;2023-09-30T05:37:13;10.33;;;5.10;;
10246;SDS011;5168;47.854;7.944;2023-09-30T05:39:39;10.33;;;5.63;;
10246;SDS011;5168;47.854;7.944;2023-09-30T05:42:05;11.93;;;5.23;;
10246;SDS011;5168;47.854;7.944;2023-09-30T05:44:32;9.80;;;5.40;;
10246;SDS011;5168;47.854;7.944;2023-09-30T05:46:58;8.77;;;4.70;;
10246;SDS011;5168;47.854;7.944;2023-09-30T05:49:25;10.70;;;5.20;;
10246;SDS011;5168;47.854;7.944;2023-09-30T05:51:50;10.40;;;4.90;;
10246;SDS011;5168;47.854;7.944;2023-09-30T05:54:16;10.27;;;5.50;;
10246;SDS011;5168;47.854;7.944;2023-09-30T05:56:42;10.80;;;4.80;;
10246;SDS011;5168;47.854;7.944;2023-09-30T05:59:09;9.90;;;4.63;;
10246;SDS011;5168;47.854;7.944;2023-09-30T06:01:34;9.20;;;4.80;;
10246;SDS011;5168;47.854;7.944;2023-09-30T06:04:01;11.27;;;4.70;;
10246;SDS011;5168;47.854;7.944;2023-09-30T06:06:27;9.07;;;4.53;;
10246;SDS011;5168;47.854;7.944;2023-09-30T06:08:56;9.27;;;4.87;;
10246;SDS011;5168;47.854;7.944;2023-09-30T06:11:24;12.23;;;5.17;;
10246;SDS011;5168;47.854;7.944;2023-09-30T06:13:56;10.53;;;5.23;;
10246;SDS011;5168;47.854;7.944;2023-09-30T06:16:32;11.47;;;4.90;;
10246;SDS011;5168;47.854;7.944;2023-09-30T06:18:59;11.37;;;4.87;;
10246;SDS011;5168;47.854;7.944;2023-09-30T06:21:25;9.73;;;4.57;;
10246;SDS011;5168;47.854;7.944;2023-09-30T06:23:54;12.03;;;5.23;;
10246;SDS011;5168;47.854;7.944;2023-09-30T06:26:20;9.00;;;4.70;;
10246;SDS011;5168;47.854;7.944;2023-09-30T06:28:46;7.63;;;4.70;;
10246;SDS011;5168;47.854;7.944;2023-09-30T06:31:13;9.67;;;5.00;;
10246;SDS011;5168;47.854;7.944;2023-09-30T06:33:39;10.10;;;4.93;;
10246;SDS011;5168;47.854;7.944;2023-09-30T06:36:08;10.30;;;4.93;;
10246;SDS011;5168;47.854;7.944;2023-09-30T06:38:35;9.83;;;4.70;;
10246;SDS011;5168;47.854;7.944;2023-09-30T06:41:02;10.27;;;5.57;;
10246;SDS011;5168;47.854;7.944;2023-09-30T06:43:28;13.23;;;6.07;;
10246;SDS011;5168;47.854;7.944;2023-09-30T06:45:54;12.07;;;5.37;;
10246;SDS011;5168;47.854;7.944;2023-09-30T06:48:20;10.43;;;5.70;;
10246;SDS011;5168;47.854;7.944;2023-09-30T06:50:47;10.60;;;5.00;;
10246;SDS011;5168;47.854;7.944;2023-09-30T06:53:14;8.80;;;4.87;;
10246;SDS011;5168;47.854;7.944;2023-09-30T06:55:43;10.33;;;5.20;;
10246;SDS011;5168;47.854;7.944;2023-09-30T06:58:09;8.93;;;5.10;;
10246;SDS011;5168;47.854;7.944;2023-09-30T07:00:40;9.50;;;5.23;;
10246;SDS011;5168;47.854;7.944;2023-09-30T07:03:06;8.17;;;4.63;;
10246;SDS011;5168;47.854;7.944;2023-09-30T07:05:35;8.13;;;4.17;;
10246;SDS011;5168;47.854;7.944;2023-09-30T07:08:01;7.57;;;4.27;;
10246;SDS011;5168;47.854;7.944;2023-09-30T07:10:27;6.57;;;3.90;;
10246;SDS011;5168;47.854;7.944;2023-09-30T07:12:54;7.40;;;4.10;;
10246;SDS011;5168;47.854;7.944;2023-09-30T07:15:20;7.57;;;4.37;;
10246;SDS011;5168;47.854;7.944;2023-09-30T07:17:46;11.43;;;5.40;;
10246;SDS011;5168;47.854;7.944;2023-09-30T07:20:12;9.60;;;4.93;;
10246;SDS011;5168;47.854;7.944;2023-09-30T07:22:38;10.73;;;4.77;;
10246;SDS011;5168;47.854;7.944;2023-09-30T07:25:04;7.83;;;4.27;;
10246;SDS011;5168;47.854;7.944;2023-09-30T07:27:30;9.67;;;4.83;;
10246;SDS011;5168;47.854;7.944;2023-09-30T07:29:56;7.87;;;4.63;;
10246;SDS011;5168;47.854;7.944;2023-09-30T07:32:22;7.23;;;4.33;;
10246;SDS011;5168;47.854;7.944;2023-09-30T07:34:49;10.47;;;5.13;;
10246;SDS011;5168;47.854;7.944;2023-09-30T07:37:15;8.30;;;4.27;;
10246;SDS011;5168;47.854;7.944;2023-09-30T07:39:42;14.10;;;5.33;;
10246;SDS011;5168;47.854;7.944;2023-09-30T07:42:11;11.50;;;5.20;;
10246;SDS011;5168;47.854;7.944;2023-09-30T07:44:36;10.17;;;5.37;;
10246;SDS011;5168;47.854;7.944;2023-09-30T07:47:03;15.03;;;6.63;;
10246;SDS011;5168;47.854;7.944;2023-09-30T07:49:31;14.87;;;7.60;;
10246;SDS011;5168;47.854;7.944;2023-09-30T07:51:57;17.17;;;7.97;;
10246;SDS011;5168;47.854;7.944;2023-09-30T07:54:23;14.07;;;7.57;;
10246;SDS011;5168;47.854;7.944;2023-09-30T07:56:49;12.00;;;6.17;;
10246;SDS011;5168;47.854;7.944;2023-09-30T07:59:15;11.70;;;5.70;;
10246;SDS011;5168;47.854;7.944;2023-09-30T08:01:41;13.03;;;6.27;;
10246;SDS011;5168;47.854;7.944;2023-09-30T08:04:07;8.50;;;4.80;;
10246;SDS011;5168;47.854;7.944;2023-09-30T08:06:32;9.60;;;4.87;;
10246;SDS011;5168;47.854;7.944;2023-09-30T08:08:58;10.87;;;5.17;;
10246;SDS011;5168;47.854;7.944;2023-09-30T08:11:23;10.73;;;5.27;;
10246;SDS011;5168;47.854;7.944;2023-09-30T08:13:53;10.23;;;5.10;;
10246;SDS011;5168;47.854;7.944;2023-09-30T08:16:18;10.10;;;4.90;;
10246;SDS011;5168;47.854;7.944;2023-09-30T08:18:44;14.23;;;5.90;;
10246;SDS011;5168;47.854;7.944;2023-09-30T08:21:10;13.83;;;5.77;;
10246;SDS011;5168;47.854;7.944;2023-09-30T08:23:36;10.73;;;5.13;;
10246;SDS011;5168;47.854;7.944;2023-09-30T08:26:03;11.63;;;5.23;;
10246;SDS011;5168;47.854;7.944;2023-09-30T08:28:30;11.17;;;5.27;;
10246;SDS011;5168;47.854;7.944;2023-09-30T08:31:01;12.93;;;5.90;;
10246;SDS011;5168;47.854;7.944;2023-09-30T08:33:31;10.40;;;5.77;;
10246;SDS011;5168;47.854;7.944;2023-09-30T08:36:01;10.37;;;5.07;;
10246;SDS011;5168;47.854;7.944;2023-09-30T08:38:32;11.47;;;5.37;;
10246;SDS011;5168;47.854;7.944;2023-09-30T08:40:58;10.87;;;4.97;;
10246;SDS011;5168;47.854;7.944;2023-09-30T08:43:25;11.50;;;5.33;;
10246;SDS011;5168;47.854;7.944;2023-09-30T08:45:56;11.43;;;4.60;;
10246;SDS011;5168;47.854;7.944;2023-09-30T08:48:23;9.77;;;4.87;;
10246;SDS011;5168;47.854;7.944;2023-09-30T08:50:51;10.60;;;5.13;;
10246;SDS011;5168;47.854;7.944;2023-09-30T08:53:19;10.00;;;5.03;;
10246;SDS011;5168;47.854;7.944;2023-09-30T08:55:45;12.40;;;5.60;;
10246;SDS011;5168;47.854;7.944;2023-09-30T08:58:11;9.63;;;4.63;;
10246;SDS011;5168;47.854;7.944;2023-09-30T09:00:38;9.90;;;4.63;;
10246;SDS011;5168;47.854;7.944;2023-09-30T09:03:04;12.27;;;5.80;;
10246;SDS011;5168;47.854;7.944;2023-09-30T09:05:31;7.67;;;4.50;;
10246;SDS011;5168;47.854;7.944;2023-09-30T09:07:57;7.73;;;4.63;;
10246;SDS011;5168;47.854;7.944;2023-09-30T09:10:23;11.00;;;5.37;;
10246;SDS011;5168;47.854;7.944;2023-09-30T09:12:55;8.30;;;4.60;;
10246;SDS011;5168;47.854;7.944;2023-09-30T09:15:25;8.23;;;4.77;;
10246;SDS011;5168;47.854;7.944;2023-09-30T09:17:53;12.03;;;5.43;;
10246;SDS011;5168;47.854;7.944;2023-09-30T09:20:20;10.67;;;4.90;;
10246;SDS011;5168;47.854;7.944;2023-09-30T09:22:50;11.17;;;5.17;;
10246;SDS011;5168;47.854;7.944;2023-09-30T09:25:18;10.40;;;5.33;;
10246;SDS011;5168;47.854;7.944;2023-09-30T09:27:45;9.43;;;5.20;;
10246;SDS011;5168;47.854;7.944;2023-09-30T09:30:14;10.40;;;5.00;;
10246;SDS011;5168;47.854;7.944;2023-09-30T09:32:51;8.23;;;5.10;;
10246;SDS011;5168;47.854;7.944;2023-09-30T09:35:20;11.40;;;5.13;;
10246;SDS011;5168;47.854;7.944;2023-09-30T09:38:05;13.17;;;5.57;;
10246;SDS011;5168;47.854;7.944;2023-09-30T09:40:32;11.70;;;5.50;;
10246;SDS011;5168;47.854;7.944;2023-09-30T09:42:59;8.87;;;4.97;;
10246;SDS011;5168;47.854;7.944;2023-09-30T09:45:27;10.27;;;5.40;;
10246;SDS011;5168;47.854;7.944;2023-09-30T09:47:56;11.50;;;6.03;;
10246;SDS011;5168;47.854;7.944;2023-09-30T09:50:22;11.70;;;5.23;;
10246;SDS011;5168;47.854;7.944;2023-09-30T09:52:49;11.83;;;5.07;;
10246;SDS011;5168;47.854;7.944;2023-09-30T09:55:24;12.57;;;6.07;;
10246;SDS011;5168;47.854;7.944;2023-09-30T09:57:50;9.77;;;4.83;;
10246;SDS011;5168;47.854;7.944;2023-09-30T10:00:18;10.83;;;5.40;;
10246;SDS011;5168;47.854;7.944;2023-09-30T10:02:45;9.57;;;5.10;;
10246;SDS011;5168;47.854;7.944;2023-09-30T10:05:12;12.53;;;5.50;;
10246;SDS011;5168;47.854;7.944;2023-09-30T10:07:47;10.10;;;5.03;;
10246;SDS011;5168;47.854;7.944;2023-09-30T10:10:25;9.87;;;5.17;;
10246;SDS011;5168;47.854;7.944;2023-09-30T10:12:53;10.07;;;5.10;;
10246;SDS011;5168;47.854;7.944;2023-09-30T10:20:38;12.77;;;5.77;;
10246;SDS011;5168;47.854;7.944;2023-09-30T10:23:27;9.93;;;5.20;;
10246;SDS011;5168;47.854;7.944;2023-09-30T10:26:13;11.87;;;5.53;;
10246;SDS011;5168;47.854;7.944;2023-09-30T10:28:43;9.73;;;5.33;;
10246;SDS011;5168;47.854;7.944;2023-09-30T10:31:15;9.67;;;4.83;;
10246;SDS011;5168;47.854;7.944;2023-09-30T10:36:37;11.67;;;5.10;;
10246;SDS011;5168;47.854;7.944;2023-09-30T10:39:05;9.27;;;5.27;;
10246;SDS011;5168;47.854;7.944;2023-09-30T10:46:55;8.80;;;4.83;;
10246;SDS011;5168;47.854;7.944;2023-09-30T10:51:51;10.83;;;4.90;;
10246;SDS011;5168;47.854;7.944;2023-09-30T10:54:27;11.67;;;4.87;;
10246;SDS011;5168;47.854;7.944;2023-09-30T10:56:54;10.57;;;5.47;;
10246;SDS011;5168;47.854;7.944;2023-09-30T10:59:24;11.60;;;5.90;;
10246;SDS011;5168;47.854;7.944;2023-09-30T11:01:51;9.87;;;5.00;;
10246;SDS011;5168;47.854;7.944;2023-09-30T11:04:18;10.73;;;5.30;;
10246;SDS011;5168;47.854;7.944;2023-09-30T11:06:44;10.87;;;4.90;;
10246;SDS011;5168;47.854;7.944;2023-09-30T11:09:15;9.80;;;5.00;;
10246;SDS011;5168;47.854;7.944;2023-09-30T11:11:45;11.20;;;4.60;;
10246;SDS011;5168;47.854;7.944;2023-09-30T11:14:25;8.60;;;4.90;;
10246;SDS011;5168;47.854;7.944;2023-09-30T11:16:54;10.17;;;5.00;;
10246;SDS011;5168;47.854;7.944;2023-09-30T11:19:21;10.73;;;5.37;;
10246;SDS011;5168;47.854;7.944;2023-09-30T11:21:49;8.30;;;4.17;;
10246;SDS011;5168;47.854;7.944;2023-09-30T11:24:16;11.37;;;4.90;;
10246;SDS011;5168;47.854;7.944;2023-09-30T11:26:43;10.43;;;5.27;;
10246;SDS011;5168;47.854;7.944;2023-09-30T11:29:11;11.10;;;5.70;;
10246;SDS011;5168;47.854;7.944;2023-09-30T11:31:41;10.30;;;5.17;;
10246;SDS011;5168;47.854;7.944;2023-09-30T11:34:12;11.97;;;4.80;;
10246;SDS011;5168;47.854;7.944;2023-09-30T11:36:41;9.33;;;4.97;;
10246;SDS011;5168;47.854;7.944;2023-09-30T11:41:49;12.27;;;6.07;;
10246;SDS011;5168;47.854;7.944;2023-09-30T11:44:15;10.90;;;5.07;;
10246;SDS011;5168;47.854;7.944;2023-09-30T11:46:48;13.57;;;6.60;;
10246;SDS011;5168;47.854;7.944;2023-09-30T11:49:35;12.50;;;6.03;;
10246;SDS011;5168;47.854;7.944;2023-09-30T11:52:03;10.33;;;6.23;;
10246;SDS011;5168;47.854;7.944;2023-09-30T11:54:38;14.93;;;6.43;;
10246;SDS011;5168;47.854;7.944;2023-09-30T11:57:15;11.70;;;6.07;;
10246;SDS011;5168;47.854;7.944;2023-09-30T11:59:41;10.53;;;6.30;;
10246;SDS011;5168;47.854;7.944;2023-09-30T12:02:08;12.97;;;6.63;;
10246;SDS011;5168;47.854;7.944;2023-09-30T12:04:38;11.73;;;5.80;;
10246;SDS011;5168;47.854;7.944;2023-09-30T12:07:04;12.47;;;6.37;;
10246;SDS011;5168;47.854;7.944;2023-09-30T12:09:31;10.73;;;5.60;;
10246;SDS011;5168;47.854;7.944;2023-09-30T12:11:57;10.93;;;5.83;;
10246;SDS011;5168;47.854;7.944;2023-09-30T12:14:23;9.00;;;5.30;;
10246;SDS011;5168;47.854;7.944;2023-09-30T12:16:49;12.83;;;6.27;;
10246;SDS011;5168;47.854;7.944;2023-09-30T12:19:18;11.90;;;6.23;;
10246;SDS011;5168;47.854;7.944;2023-09-30T12:21:45;12.97;;;6.07;;
10246;SDS011;5168;47.854;7.944;2023-09-30T12:24:16;10.70;;;5.63;;
10246;SDS011;5168;47.854;7.944;2023-09-30T12:26:45;14.27;;;6.60;;
10246;SDS011;5168;47.854;7.944;2023-09-30T12:29:14;12.27;;;5.83;;
10246;SDS011;5168;47.854;7.944;2023-09-30T12:31:42;12.80;;;6.13;;
10246;SDS011;5168;47.854;7.944;2023-09-30T12:34:14;13.27;;;6.53;;
10246;SDS011;5168;47.854;7.944;2023-09-30T12:36:41;11.10;;;5.80;;
10246;SDS011;5168;47.854;7.944;2023-09-30T12:39:07;11.57;;;6.60;;
10246;SDS011;5168;47.854;7.944;2023-09-30T12:41:40;10.27;;;5.20;;
10246;SDS011;5168;47.854;7.944;2023-09-30T12:44:07;12.13;;;6.20;;
10246;SDS011;5168;47.854;7.944;2023-09-30T12:46:33;12.93;;;6.70;;
10246;SDS011;5168;47.854;7.944;2023-09-30T12:49:01;16.13;;;7.07;;
10246;SDS011;5168;47.854;7.944;2023-09-30T12:51:27;11.93;;;6.47;;
10246;SDS011;5168;47.854;7.944;2023-09-30T12:53:53;11.77;;;5.80;;
10246;SDS011;5168;47.854;7.944;2023-09-30T12:56:19;11.13;;;6.07;;
10246;SDS011;5168;47.854;7.944;2023-09-30T12:58:46;14.23;;;7.03;;
10246;SDS011;5168;47.854;7.944;2023-09-30T13:01:11;14.67;;;6.97;;
10246;SDS011;5168;47.854;7.944;2023-09-30T13:03:37;15.33;;;7.00;;
10246;SDS011;5168;47.854;7.944;2023-09-30T13:06:03;12.13;;;6.23;;
10246;SDS011;5168;47.854;7.944;2023-09-30T13:08:29;12.57;;;6.53;;
10246;SDS011;5168;47.854;7.944;2023-09-30T13:11:02;12.47;;;6.27;;
10246;SDS011;5168;47.854;7.944;2023-09-30T13:13:29;14.37;;;6.83;;
10246;SDS011;5168;47.854;7.944;2023-09-30T13:15:56;16.73;;;7.30;;
10246;SDS011;5168;47.854;7.944;2023-09-30T13:18:22;14.57;;;7.50;;
10246;SDS011;5168;47.854;7.944;2023-09-30T13:20:48;13.57;;;6.53;;
10246;SDS011;5168;47.854;7.944;2023-09-30T13:23:14;13.60;;;6.72;;
10246;SDS011;5168;47.854;7.944;2023-09-30T13:25:39;14.55;;;6.78;;
10246;SDS011;5168;47.854;7.944;2023-09-30T13:28:05;12.30;;;6.13;;
10246;SDS011;5168;47.854;7.944;2023-09-30T13:30:31;10.85;;;6.18;;
10246;SDS011;5168;47.854;7.944;2023-09-30T13:32:57;15.55;;;6.68;;
10246;SDS011;5168;47.854;7.944;2023-09-30T13:35:23;10.95;;;5.53;;
10246;SDS011;5168;47.854;7.944;2023-09-30T13:37:49;14.00;;;5.55;;
10246;SDS011;5168;47.854;7.944;2023-09-30T13:40:15;10.57;;;5.68;;
10246;SDS011;5168;47.854;7.944;2023-09-30T13:42:42;12.30;;;5.70;;
10246;SDS011;5168;47.854;7.944;2023-09-30T13:45:08;13.83;;;5.90;;
10246;SDS011;5168;47.854;7.944;2023-09-30T13:47:34;13.38;;;6.50;;
10246;SDS011;5168;47.854;7.944;2023-09-30T13:50:00;12.27;;;6.07;;
10246;SDS011;5168;47.854;7.944;2023-09-30T13:52:28;11.25;;;5.97;;
10246;SDS011;5168;47.854;7.944;2023-09-30T13:54:54;10.43;;;5.53;;
10246;SDS011;5168;47.854;7.944;2023-09-30T13:57:20;11.70;;;5.28;;
10246;SDS011;5168;47.854;7.944;2023-09-30T13:59:46;11.70;;;5.00;;
10246;SDS011;5168;47.854;7.944;2023-09-30T14:02:12;8.60;;;4.72;;
10246;SDS011;5168;47.854;7.944;2023-09-30T14:04:38;11.35;;;5.80;;
10246;SDS011;5168;47.854;7.944;2023-09-30T14:07:04;11.68;;;5.55;;
10246;SDS011;5168;47.854;7.944;2023-09-30T14:09:33;7.80;;;4.93;;
10246;SDS011;5168;47.854;7.944;2023-09-30T14:11:59;7.85;;;4.70;;
10246;SDS011;5168;47.854;7.944;2023-09-30T14:14:25;8.90;;;4.70;;
10246;SDS011;5168;47.854;7.944;2023-09-30T14:16:51;10.02;;;4.95;;
10246;SDS011;5168;47.854;7.944;2023-09-30T14:19:17;7.60;;;4.55;;
10246;SDS011;5168;47.854;7.944;2023-09-30T14:21:43;11.63;;;5.75;;
10246;SDS011;5168;47.854;7.944;2023-09-30T14:24:10;10.55;;;5.53;;
10246;SDS011;5168;47.854;7.944;2023-09-30T14:26:36;11.70;;;5.40;;
10246;SDS011;5168;47.854;7.944;2023-09-30T14:29:02;12.00;;;5.50;;
10246;SDS011;5168;47.854;7.944;2023-09-30T14:31:28;11.38;;;5.32;;
10246;SDS011;5168;47.854;7.944;2023-09-30T14:33:54;12.67;;;6.50;;
10246;SDS011;5168;47.854;7.944;2023-09-30T14:36:20;9.70;;;5.10;;
10246;SDS011;5168;47.854;7.944;2023-09-30T14:38:45;10.77;;;5.23;;
10246;SDS011;5168;47.854;7.944;2023-09-30T14:41:11;9.83;;;5.83;;
10246;SDS011;5168;47.854;7.944;2023-09-30T14:43:37;9.47;;;5.30;;
10246;SDS011;5168;47.854;7.944;2023-09-30T14:46:03;9.67;;;4.87;;
10246;SDS011;5168;47.854;7.944;2023-09-30T14:48:30;10.07;;;5.63;;
10246;SDS011;5168;47.854;7.944;2023-09-30T14:50:55;11.00;;;5.67;;
10246;SDS011;5168;47.854;7.944;2023-09-30T14:53:21;11.77;;;5.63;;
10246;SDS011;5168;47.854;7.944;2023-09-30T14:55:47;10.90;;;5.20;;
10246;SDS011;5168;47.854;7.944;2023-09-30T14:58:13;12.50;;;6.27;;
10246;SDS011;5168;47.854;7.944;2023-09-30T15:00:39;12.20;;;5.83;;
10246;SDS011;5168;47.854;7.944;2023-09-30T15:03:05;8.23;;;4.43;;
10246;SDS011;5168;47.854;7.944;2023-09-30T15:05:34;12.77;;;5.57;;
10246;SDS011;5168;47.854;7.944;2023-09-30T15:08:00;10.77;;;5.33;;
10246;SDS011;5168;47.854;7.944;2023-09-30T15:10:28;10.67;;;5.53;;
10246;SDS011;5168;47.854;7.944;2023-09-30T15:12:54;10.93;;;5.60;;